sensor_id;sensor_type;location;lat;lon;timestamp;P1;durP1;ratioP1;P2;durP2;ratioP2
48871;SDS011;36154;51.674;7.824;2022-12-10T00:01:39;0.90;;;0.90;;
48871;SDS011;36154;51.674;7.824;2022-12-10T00:04:05;1.10;;;1.10;;
48871;SDS011;36154;51.674;7.824;2022-12-10T00:06:31;0.88;;;0.88;;
48871;SDS011;36154;51.674;7.824;2022-12-10T00:08:59;0.82;;;0.82;;
48871;SDS011;36154;51.674;7.824;2022-12-10T00:11:26;0.85;;;0.85;;
48871;SDS011;36154;51.674;7.824;2022-12-10T00:13:52;1.67;;;0.90;;
48871;SDS011;36154;51.674;7.824;2022-12-10T00:16:19;1.00;;;1.00;;
48871;SDS011;36154;51.674;7.824;2022-12-10T00:18:45;0.88;;;0.88;;
48871;SDS011;36154;51.674;7.824;2022-12-10T00:21:13;0.90;;;0.90;;
48871;SDS011;36154;51.674;7.824;2022-12-10T00:23:41;1.10;;;1.10;;
48871;SDS011;36154;51.674;7.824;2022-12-10T00:26:10;0.80;;;0.80;;
48871;SDS011;36154;51.674;7.824;2022-12-10T00:28:38;0.75;;;0.75;;
48871;SDS011;36154;51.674;7.824;2022-12-10T00:31:13;0.70;;;0.70;;
48871;SDS011;36154;51.674;7.824;2022-12-10T00:33:41;1.05;;;1.05;;
48871;SDS011;36154;51.674;7.824;2022-12-10T00:36:08;0.70;;;0.70;;
48871;SDS011;36154;51.674;7.824;2022-12-10T00:38:36;1.40;;;1.30;;
48871;SDS011;36154;51.674;7.824;2022-12-10T00:41:02;0.80;;;0.80;;
48871;SDS011;36154;51.674;7.824;2022-12-10T00:43:28;0.90;;;0.90;;
48871;SDS011;36154;51.674;7.824;2022-12-10T00:45:53;0.70;;;0.70;;
48871;SDS011;36154;51.674;7.824;2022-12-10T00:48:19;0.70;;;0.70;;
48871;SDS011;36154;51.674;7.824;2022-12-10T00:50:59;1.13;;;1.13;;
48871;SDS011;36154;51.674;7.824;2022-12-10T00:53:29;1.10;;;1.10;;
48871;SDS011;36154;51.674;7.824;2022-12-10T00:55:56;0.90;;;0.90;;
48871;SDS011;36154;51.674;7.824;2022-12-10T00:58:22;0.80;;;0.80;;
48871;SDS011;36154;51.674;7.824;2022-12-10T01:00:48;1.10;;;1.10;;
48871;SDS011;36154;51.674;7.824;2022-12-10T01:03:14;1.10;;;1.10;;
48871;SDS011;36154;51.674;7.824;2022-12-10T01:05:39;1.00;;;1.00;;
48871;SDS011;36154;51.674;7.824;2022-12-10T01:08:05;1.20;;;1.20;;
48871;SDS011;36154;51.674;7.824;2022-12-10T01:10:30;0.90;;;0.65;;
48871;SDS011;36154;51.674;7.824;2022-12-10T01:12:55;0.90;;;0.90;;
48871;SDS011;36154;51.674;7.824;2022-12-10T01:15:21;1.02;;;1.02;;
48871;SDS011;36154;51.674;7.824;2022-12-10T01:17:46;1.00;;;1.00;;
48871;SDS011;36154;51.674;7.824;2022-12-10T01:20:11;0.85;;;0.85;;
48871;SDS011;36154;51.674;7.824;2022-12-10T01:22:37;0.80;;;0.80;;
48871;SDS011;36154;51.674;7.824;2022-12-10T01:25:03;0.80;;;0.80;;
48871;SDS011;36154;51.674;7.824;2022-12-10T01:27:28;1.08;;;1.08;;
48871;SDS011;36154;51.674;7.824;2022-12-10T01:29:54;0.98;;;0.98;;
48871;SDS011;36154;51.674;7.824;2022-12-10T01:32:19;1.00;;;1.00;;
48871;SDS011;36154;51.674;7.824;2022-12-10T01:34:44;1.00;;;1.00;;
48871;SDS011;36154;51.674;7.824;2022-12-10T01:37:12;0.77;;;0.77;;
48871;SDS011;36154;51.674;7.824;2022-12-10T01:39:40;1.10;;;1.10;;
48871;SDS011;36154;51.674;7.824;2022-12-10T01:42:05;0.80;;;0.80;;
48871;SDS011;36154;51.674;7.824;2022-12-10T01:44:56;1.30;;;1.20;;
48871;SDS011;36154;51.674;7.824;2022-12-10T01:47:21;0.90;;;0.90;;
48871;SDS011;36154;51.674;7.824;2022-12-10T01:49:47;1.00;;;1.00;;
48871;SDS011;36154;51.674;7.824;2022-12-10T01:52:12;0.88;;;0.88;;
48871;SDS011;36154;51.674;7.824;2022-12-10T01:54:39;1.00;;;1.00;;
48871;SDS011;36154;51.674;7.824;2022-12-10T01:57:14;1.00;;;1.00;;
48871;SDS011;36154;51.674;7.824;2022-12-10T01:59:42;1.20;;;1.10;;
48871;SDS011;36154;51.674;7.824;2022-12-10T02:02:12;0.82;;;0.82;;
48871;SDS011;36154;51.674;7.824;2022-12-10T02:08:03;0.90;;;0.90;;
48871;SDS011;36154;51.674;7.824;2022-12-10T02:13:27;1.23;;;1.20;;
48871;SDS011;36154;51.674;7.824;2022-12-10T02:21:38;0.70;;;0.70;;
48871;SDS011;36154;51.674;7.824;2022-12-10T02:24:07;0.82;;;0.82;;
48871;SDS011;36154;51.674;7.824;2022-12-10T02:27:23;1.30;;;1.00;;
48871;SDS011;36154;51.674;7.824;2022-12-10T02:29:25;1.10;;;1.10;;
48871;SDS011;36154;51.674;7.824;2022-12-10T02:32:02;0.80;;;0.80;;
48871;SDS011;36154;51.674;7.824;2022-12-10T02:34:33;0.90;;;0.90;;
48871;SDS011;36154;51.674;7.824;2022-12-10T02:37:04;0.90;;;0.90;;
48871;SDS011;36154;51.674;7.824;2022-12-10T02:39:36;0.85;;;0.85;;
48871;SDS011;36154;51.674;7.824;2022-12-10T02:42:05;1.00;;;1.00;;
48871;SDS011;36154;51.674;7.824;2022-12-10T02:44:32;0.80;;;0.80;;
48871;SDS011;36154;51.674;7.824;2022-12-10T02:47:01;0.70;;;0.70;;
48871;SDS011;36154;51.674;7.824;2022-12-10T02:49:28;0.90;;;0.90;;
48871;SDS011;36154;51.674;7.824;2022-12-10T02:51:55;0.98;;;0.98;;
48871;SDS011;36154;51.674;7.824;2022-12-10T03:08:24;0.90;;;0.90;;
48871;SDS011;36154;51.674;7.824;2022-12-10T03:16:09;0.80;;;0.80;;
48871;SDS011;36154;51.674;7.824;2022-12-10T03:18:36;0.93;;;0.93;;
48871;SDS011;36154;51.674;7.824;2022-12-10T03:21:03;1.05;;;1.05;;
48871;SDS011;36154;51.674;7.824;2022-12-10T03:23:31;0.90;;;0.90;;
48871;SDS011;36154;51.674;7.824;2022-12-10T03:26:00;1.00;;;1.00;;
48871;SDS011;36154;51.674;7.824;2022-12-10T03:28:26;0.80;;;0.80;;
48871;SDS011;36154;51.674;7.824;2022-12-10T03:30:56;1.00;;;1.00;;
48871;SDS011;36154;51.674;7.824;2022-12-10T03:33:22;0.98;;;0.98;;
48871;SDS011;36154;51.674;7.824;2022-12-10T03:35:48;1.10;;;1.10;;
48871;SDS011;36154;51.674;7.824;2022-12-10T03:38:14;0.90;;;0.90;;
48871;SDS011;36154;51.674;7.824;2022-12-10T03:40:40;0.70;;;0.70;;
48871;SDS011;36154;51.674;7.824;2022-12-10T03:43:06;1.00;;;1.00;;
48871;SDS011;36154;51.674;7.824;2022-12-10T03:45:31;1.00;;;1.00;;
48871;SDS011;36154;51.674;7.824;2022-12-10T03:47:56;1.15;;;0.90;;
48871;SDS011;36154;51.674;7.824;2022-12-10T03:50:22;0.98;;;0.98;;
48871;SDS011;36154;51.674;7.824;2022-12-10T03:52:47;0.82;;;0.82;;
48871;SDS011;36154;51.674;7.824;2022-12-10T03:55:14;0.80;;;0.80;;
48871;SDS011;36154;51.674;7.824;2022-12-10T03:57:40;0.90;;;0.90;;
48871;SDS011;36154;51.674;7.824;2022-12-10T04:00:06;0.70;;;0.70;;
48871;SDS011;36154;51.674;7.824;2022-12-10T04:02:32;0.88;;;0.88;;
48871;SDS011;36154;51.674;7.824;2022-12-10T04:04:57;0.95;;;0.95;;
48871;SDS011;36154;51.674;7.824;2022-12-10T04:07:23;0.90;;;0.90;;
48871;SDS011;36154;51.674;7.824;2022-12-10T04:09:48;1.27;;;1.20;;
48871;SDS011;36154;51.674;7.824;2022-12-10T04:12:13;0.90;;;0.90;;
48871;SDS011;36154;51.674;7.824;2022-12-10T04:14:39;1.23;;;1.23;;
48871;SDS011;36154;51.674;7.824;2022-12-10T04:17:23;0.88;;;0.88;;
48871;SDS011;36154;51.674;7.824;2022-12-10T04:19:48;1.02;;;1.00;;
48871;SDS011;36154;51.674;7.824;2022-12-10T04:22:14;0.80;;;0.80;;
48871;SDS011;36154;51.674;7.824;2022-12-10T04:24:57;0.70;;;0.70;;
48871;SDS011;36154;51.674;7.824;2022-12-10T04:27:41;0.80;;;0.80;;
48871;SDS011;36154;51.674;7.824;2022-12-10T04:30:07;0.70;;;0.70;;
48871;SDS011;36154;51.674;7.824;2022-12-10T04:32:34;0.68;;;0.68;;
48871;SDS011;36154;51.674;7.824;2022-12-10T04:35:00;0.73;;;0.73;;
48871;SDS011;36154;51.674;7.824;2022-12-10T04:37:26;1.10;;;1.10;;
48871;SDS011;36154;51.674;7.824;2022-12-10T04:39:52;0.68;;;0.68;;
48871;SDS011;36154;51.674;7.824;2022-12-10T04:42:18;0.70;;;0.70;;
48871;SDS011;36154;51.674;7.824;2022-12-10T04:44:44;0.63;;;0.63;;
48871;SDS011;36154;51.674;7.824;2022-12-10T04:47:09;0.70;;;0.70;;
48871;SDS011;36154;51.674;7.824;2022-12-10T04:49:36;0.60;;;0.60;;
48871;SDS011;36154;51.674;7.824;2022-12-10T04:52:02;1.52;;;0.70;;
48871;SDS011;36154;51.674;7.824;2022-12-10T04:54:30;0.50;;;0.50;;
48871;SDS011;36154;51.674;7.824;2022-12-10T04:56:56;0.60;;;0.60;;
48871;SDS011;36154;51.674;7.824;2022-12-10T04:59:21;0.60;;;0.60;;
48871;SDS011;36154;51.674;7.824;2022-12-10T05:01:47;0.47;;;0.47;;
48871;SDS011;36154;51.674;7.824;2022-12-10T05:04:14;0.50;;;0.50;;
48871;SDS011;36154;51.674;7.824;2022-12-10T05:06:41;0.40;;;0.40;;
48871;SDS011;36154;51.674;7.824;2022-12-10T05:09:08;0.60;;;0.60;;
48871;SDS011;36154;51.674;7.824;2022-12-10T05:11:35;0.60;;;0.60;;
48871;SDS011;36154;51.674;7.824;2022-12-10T05:14:00;0.70;;;0.70;;
48871;SDS011;36154;51.674;7.824;2022-12-10T05:16:27;0.77;;;0.77;;
48871;SDS011;36154;51.674;7.824;2022-12-10T05:18:54;0.70;;;0.70;;
48871;SDS011;36154;51.674;7.824;2022-12-10T05:21:20;0.65;;;0.65;;
48871;SDS011;36154;51.674;7.824;2022-12-10T05:23:48;0.90;;;0.90;;
48871;SDS011;36154;51.674;7.824;2022-12-10T05:26:16;0.82;;;0.82;;
48871;SDS011;36154;51.674;7.824;2022-12-10T05:28:43;0.80;;;0.80;;
48871;SDS011;36154;51.674;7.824;2022-12-10T05:33:52;0.70;;;0.70;;
48871;SDS011;36154;51.674;7.824;2022-12-10T05:36:20;1.10;;;1.10;;
48871;SDS011;36154;51.674;7.824;2022-12-10T05:38:47;1.13;;;1.13;;
48871;SDS011;36154;51.674;7.824;2022-12-10T05:41:17;1.88;;;1.77;;
48871;SDS011;36154;51.674;7.824;2022-12-10T05:43:45;1.92;;;1.83;;
48871;SDS011;36154;51.674;7.824;2022-12-10T05:46:12;2.15;;;2.05;;
48871;SDS011;36154;51.674;7.824;2022-12-10T05:48:39;2.88;;;2.67;;
48871;SDS011;36154;51.674;7.824;2022-12-10T05:51:09;2.30;;;2.20;;
48871;SDS011;36154;51.674;7.824;2022-12-10T05:53:36;1.77;;;1.67;;
48871;SDS011;36154;51.674;7.824;2022-12-10T05:56:03;1.50;;;1.42;;
48871;SDS011;36154;51.674;7.824;2022-12-10T05:58:30;1.85;;;1.75;;
48871;SDS011;36154;51.674;7.824;2022-12-10T06:00:56;1.45;;;1.45;;
48871;SDS011;36154;51.674;7.824;2022-12-10T06:03:22;1.42;;;1.33;;
48871;SDS011;36154;51.674;7.824;2022-12-10T06:05:47;1.50;;;1.50;;
48871;SDS011;36154;51.674;7.824;2022-12-10T06:08:12;1.30;;;1.30;;
48871;SDS011;36154;51.674;7.824;2022-12-10T06:10:38;1.50;;;1.50;;
48871;SDS011;36154;51.674;7.824;2022-12-10T06:13:03;1.40;;;1.40;;
48871;SDS011;36154;51.674;7.824;2022-12-10T06:15:29;1.60;;;1.50;;
48871;SDS011;36154;51.674;7.824;2022-12-10T06:17:55;1.33;;;1.33;;
48871;SDS011;36154;51.674;7.824;2022-12-10T06:20:21;1.42;;;1.42;;
48871;SDS011;36154;51.674;7.824;2022-12-10T06:22:46;1.55;;;1.55;;
48871;SDS011;36154;51.674;7.824;2022-12-10T06:25:12;1.55;;;1.55;;
48871;SDS011;36154;51.674;7.824;2022-12-10T06:27:38;1.60;;;1.50;;
48871;SDS011;36154;51.674;7.824;2022-12-10T06:30:03;1.27;;;1.27;;
48871;SDS011;36154;51.674;7.824;2022-12-10T06:32:29;1.40;;;1.40;;
48871;SDS011;36154;51.674;7.824;2022-12-10T06:34:54;1.15;;;1.15;;
48871;SDS011;36154;51.674;7.824;2022-12-10T06:37:19;1.40;;;1.40;;
48871;SDS011;36154;51.674;7.824;2022-12-10T06:39:49;1.33;;;1.33;;
48871;SDS011;36154;51.674;7.824;2022-12-10T06:42:15;1.30;;;1.30;;
48871;SDS011;36154;51.674;7.824;2022-12-10T06:44:40;1.23;;;1.13;;
48871;SDS011;36154;51.674;7.824;2022-12-10T06:47:05;1.42;;;1.33;;
48871;SDS011;36154;51.674;7.824;2022-12-10T06:49:31;1.08;;;1.08;;
48871;SDS011;36154;51.674;7.824;2022-12-10T06:51:56;1.48;;;1.38;;
48871;SDS011;36154;51.674;7.824;2022-12-10T06:54:21;1.20;;;1.20;;
48871;SDS011;36154;51.674;7.824;2022-12-10T06:56:47;1.13;;;1.13;;
48871;SDS011;36154;51.674;7.824;2022-12-10T06:59:12;1.40;;;1.40;;
48871;SDS011;36154;51.674;7.824;2022-12-10T07:01:38;1.40;;;1.40;;
48871;SDS011;36154;51.674;7.824;2022-12-10T07:04:04;1.50;;;1.40;;
48871;SDS011;36154;51.674;7.824;2022-12-10T07:06:30;1.40;;;1.40;;
48871;SDS011;36154;51.674;7.824;2022-12-10T07:08:56;1.50;;;1.50;;
48871;SDS011;36154;51.674;7.824;2022-12-10T07:11:22;1.42;;;1.40;;
48871;SDS011;36154;51.674;7.824;2022-12-10T07:13:49;2.15;;;2.05;;
48871;SDS011;36154;51.674;7.824;2022-12-10T07:16:19;1.52;;;1.42;;
48871;SDS011;36154;51.674;7.824;2022-12-10T07:18:47;1.10;;;1.10;;
48871;SDS011;36154;51.674;7.824;2022-12-10T07:21:16;1.33;;;1.33;;
48871;SDS011;36154;51.674;7.824;2022-12-10T07:23:49;1.00;;;1.00;;
48871;SDS011;36154;51.674;7.824;2022-12-10T07:26:15;1.05;;;1.05;;
48871;SDS011;36154;51.674;7.824;2022-12-10T07:28:40;1.20;;;1.20;;
48871;SDS011;36154;51.674;7.824;2022-12-10T07:31:06;1.58;;;1.48;;
48871;SDS011;36154;51.674;7.824;2022-12-10T07:33:33;1.48;;;1.48;;
48871;SDS011;36154;51.674;7.824;2022-12-10T07:35:59;1.10;;;1.10;;
48871;SDS011;36154;51.674;7.824;2022-12-10T07:38:27;1.10;;;1.10;;
48871;SDS011;36154;51.674;7.824;2022-12-10T07:40:52;0.90;;;0.90;;
48871;SDS011;36154;51.674;7.824;2022-12-10T07:43:17;1.05;;;1.05;;
48871;SDS011;36154;51.674;7.824;2022-12-10T07:45:43;0.90;;;0.90;;
48871;SDS011;36154;51.674;7.824;2022-12-10T07:48:09;0.88;;;0.88;;
48871;SDS011;36154;51.674;7.824;2022-12-10T07:50:35;0.95;;;0.95;;
48871;SDS011;36154;51.674;7.824;2022-12-10T07:53:00;0.90;;;0.80;;
48871;SDS011;36154;51.674;7.824;2022-12-10T07:55:25;1.05;;;1.05;;
48871;SDS011;36154;51.674;7.824;2022-12-10T07:57:51;1.90;;;1.80;;
48871;SDS011;36154;51.674;7.824;2022-12-10T08:00:16;2.00;;;1.90;;
48871;SDS011;36154;51.674;7.824;2022-12-10T08:02:41;1.67;;;1.67;;
48871;SDS011;36154;51.674;7.824;2022-12-10T08:05:07;1.65;;;1.55;;
48871;SDS011;36154;51.674;7.824;2022-12-10T08:07:33;1.73;;;1.63;;
48871;SDS011;36154;51.674;7.824;2022-12-10T08:09:58;1.20;;;1.20;;
48871;SDS011;36154;51.674;7.824;2022-12-10T08:12:24;1.10;;;1.10;;
48871;SDS011;36154;51.674;7.824;2022-12-10T08:14:49;1.58;;;1.48;;
48871;SDS011;36154;51.674;7.824;2022-12-10T08:17:14;1.30;;;1.20;;
48871;SDS011;36154;51.674;7.824;2022-12-10T08:19:40;1.10;;;1.10;;
48871;SDS011;36154;51.674;7.824;2022-12-10T08:22:05;1.00;;;1.00;;
48871;SDS011;36154;51.674;7.824;2022-12-10T08:24:30;1.20;;;1.20;;
48871;SDS011;36154;51.674;7.824;2022-12-10T08:26:56;1.02;;;1.02;;
48871;SDS011;36154;51.674;7.824;2022-12-10T08:29:21;0.90;;;0.90;;
48871;SDS011;36154;51.674;7.824;2022-12-10T08:31:47;1.10;;;1.10;;
48871;SDS011;36154;51.674;7.824;2022-12-10T08:34:13;0.98;;;0.98;;
48871;SDS011;36154;51.674;7.824;2022-12-10T08:36:39;0.80;;;0.80;;
48871;SDS011;36154;51.674;7.824;2022-12-10T08:39:04;0.90;;;0.90;;
48871;SDS011;36154;51.674;7.824;2022-12-10T08:41:30;0.90;;;0.90;;
48871;SDS011;36154;51.674;7.824;2022-12-10T08:43:55;0.90;;;0.90;;
48871;SDS011;36154;51.674;7.824;2022-12-10T08:46:21;1.00;;;1.00;;
48871;SDS011;36154;51.674;7.824;2022-12-10T08:48:46;0.88;;;0.88;;
48871;SDS011;36154;51.674;7.824;2022-12-10T08:51:14;0.90;;;0.90;;
48871;SDS011;36154;51.674;7.824;2022-12-10T08:53:41;0.80;;;0.80;;
48871;SDS011;36154;51.674;7.824;2022-12-10T08:56:06;0.80;;;0.80;;
48871;SDS011;36154;51.674;7.824;2022-12-10T08:58:32;0.70;;;0.70;;
48871;SDS011;36154;51.674;7.824;2022-12-10T09:00:58;0.90;;;0.90;;
48871;SDS011;36154;51.674;7.824;2022-12-10T09:03:24;0.98;;;0.98;;
48871;SDS011;36154;51.674;7.824;2022-12-10T09:05:49;0.80;;;0.80;;
48871;SDS011;36154;51.674;7.824;2022-12-10T09:08:14;0.50;;;0.50;;
48871;SDS011;36154;51.674;7.824;2022-12-10T09:10:40;0.75;;;0.75;;
48871;SDS011;36154;51.674;7.824;2022-12-10T09:13:06;0.80;;;0.80;;
48871;SDS011;36154;51.674;7.824;2022-12-10T09:15:32;0.77;;;0.77;;
48871;SDS011;36154;51.674;7.824;2022-12-10T09:17:57;0.70;;;0.70;;
48871;SDS011;36154;51.674;7.824;2022-12-10T09:20:23;0.65;;;0.65;;
48871;SDS011;36154;51.674;7.824;2022-12-10T09:22:49;0.73;;;0.73;;
48871;SDS011;36154;51.674;7.824;2022-12-10T09:25:14;0.60;;;0.60;;
48871;SDS011;36154;51.674;7.824;2022-12-10T09:27:41;0.60;;;0.60;;
48871;SDS011;36154;51.674;7.824;2022-12-10T09:30:08;0.55;;;0.55;;
48871;SDS011;36154;51.674;7.824;2022-12-10T09:32:36;0.70;;;0.70;;
48871;SDS011;36154;51.674;7.824;2022-12-10T09:35:01;0.40;;;0.40;;
48871;SDS011;36154;51.674;7.824;2022-12-10T09:37:28;0.65;;;0.65;;
48871;SDS011;36154;51.674;7.824;2022-12-10T09:39:53;0.60;;;0.60;;
48871;SDS011;36154;51.674;7.824;2022-12-10T09:42:35;0.50;;;0.50;;
48871;SDS011;36154;51.674;7.824;2022-12-10T09:48:13;1.67;;;0.90;;
48871;SDS011;36154;51.674;7.824;2022-12-10T09:53:26;0.55;;;0.55;;
48871;SDS011;36154;51.674;7.824;2022-12-10T09:55:53;0.85;;;0.85;;
48871;SDS011;36154;51.674;7.824;2022-12-10T09:58:20;0.63;;;0.63;;
48871;SDS011;36154;51.674;7.824;2022-12-10T10:00:48;1.23;;;1.23;;
48871;SDS011;36154;51.674;7.824;2022-12-10T10:03:16;0.88;;;0.80;;
48871;SDS011;36154;51.674;7.824;2022-12-10T10:05:47;0.82;;;0.80;;
48871;SDS011;36154;51.674;7.824;2022-12-10T10:08:22;0.85;;;0.73;;
48871;SDS011;36154;51.674;7.824;2022-12-10T10:10:56;0.60;;;0.60;;
48871;SDS011;36154;51.674;7.824;2022-12-10T10:13:36;0.70;;;0.70;;
48871;SDS011;36154;51.674;7.824;2022-12-10T10:19:34;0.75;;;0.75;;
48871;SDS011;36154;51.674;7.824;2022-12-10T10:21:43;0.80;;;0.80;;
48871;SDS011;36154;51.674;7.824;2022-12-10T10:24:13;2.22;;;0.77;;
48871;SDS011;36154;51.674;7.824;2022-12-10T10:26:41;1.13;;;0.77;;
48871;SDS011;36154;51.674;7.824;2022-12-10T10:29:07;0.77;;;0.77;;
48871;SDS011;36154;51.674;7.824;2022-12-10T10:31:37;0.50;;;0.50;;
48871;SDS011;36154;51.674;7.824;2022-12-10T10:34:05;0.90;;;0.90;;
48871;SDS011;36154;51.674;7.824;2022-12-10T10:36:38;1.00;;;1.00;;
48871;SDS011;36154;51.674;7.824;2022-12-10T10:41:41;1.13;;;1.13;;
48871;SDS011;36154;51.674;7.824;2022-12-10T10:44:14;0.70;;;0.70;;
48871;SDS011;36154;51.674;7.824;2022-12-10T10:46:42;1.33;;;0.63;;
48871;SDS011;36154;51.674;7.824;2022-12-10T10:51:49;0.70;;;0.70;;
48871;SDS011;36154;51.674;7.824;2022-12-10T10:54:31;0.70;;;0.70;;
48871;SDS011;36154;51.674;7.824;2022-12-10T10:57:01;0.60;;;0.60;;
48871;SDS011;36154;51.674;7.824;2022-12-10T10:59:30;1.02;;;1.02;;
48871;SDS011;36154;51.674;7.824;2022-12-10T11:02:01;2.08;;;0.65;;
48871;SDS011;36154;51.674;7.824;2022-12-10T11:04:37;0.60;;;0.60;;
48871;SDS011;36154;51.674;7.824;2022-12-10T11:07:18;0.60;;;0.60;;
48871;SDS011;36154;51.674;7.824;2022-12-10T11:09:46;1.00;;;1.00;;
48871;SDS011;36154;51.674;7.824;2022-12-10T11:17:47;2.15;;;1.10;;
48871;SDS011;36154;51.674;7.824;2022-12-10T11:20:19;1.05;;;1.05;;
48871;SDS011;36154;51.674;7.824;2022-12-10T11:22:53;1.02;;;1.02;;
48871;SDS011;36154;51.674;7.824;2022-12-10T11:25:34;1.00;;;1.00;;
48871;SDS011;36154;51.674;7.824;2022-12-10T11:34:02;2.25;;;1.10;;
48871;SDS011;36154;51.674;7.824;2022-12-10T11:39:21;9.13;;;3.03;;
48871;SDS011;36154;51.674;7.824;2022-12-10T11:42:27;23.73;;;4.10;;
48871;SDS011;36154;51.674;7.824;2022-12-10T11:50:50;13.98;;;3.72;;
48871;SDS011;36154;51.674;7.824;2022-12-10T11:53:27;13.50;;;4.07;;
48871;SDS011;36154;51.674;7.824;2022-12-10T11:59:04;12.40;;;3.72;;
48871;SDS011;36154;51.674;7.824;2022-12-10T12:04:33;8.38;;;3.40;;
48871;SDS011;36154;51.674;7.824;2022-12-10T12:07:23;9.10;;;3.20;;
48871;SDS011;36154;51.674;7.824;2022-12-10T12:12:41;7.95;;;2.92;;
48871;SDS011;36154;51.674;7.824;2022-12-10T12:18:12;9.05;;;3.42;;
48871;SDS011;36154;51.674;7.824;2022-12-10T12:20:46;10.43;;;2.90;;
48871;SDS011;36154;51.674;7.824;2022-12-10T12:25:57;8.75;;;2.72;;
48871;SDS011;36154;51.674;7.824;2022-12-10T12:28:28;7.10;;;2.72;;
48871;SDS011;36154;51.674;7.824;2022-12-10T12:31:02;4.47;;;2.00;;
48871;SDS011;36154;51.674;7.824;2022-12-10T12:33:35;5.82;;;2.22;;
48871;SDS011;36154;51.674;7.824;2022-12-10T12:38:46;6.18;;;2.30;;
48871;SDS011;36154;51.674;7.824;2022-12-10T12:41:21;8.80;;;2.53;;
48871;SDS011;36154;51.674;7.824;2022-12-10T12:44:08;5.43;;;1.70;;
48871;SDS011;36154;51.674;7.824;2022-12-10T12:47:19;4.53;;;2.20;;
48871;SDS011;36154;51.674;7.824;2022-12-10T12:49:56;3.90;;;1.88;;
48871;SDS011;36154;51.674;7.824;2022-12-10T12:52:29;3.33;;;1.70;;
48871;SDS011;36154;51.674;7.824;2022-12-10T12:55:04;3.78;;;1.80;;
48871;SDS011;36154;51.674;7.824;2022-12-10T12:57:44;5.28;;;1.98;;
48871;SDS011;36154;51.674;7.824;2022-12-10T13:00:30;6.45;;;1.90;;
48871;SDS011;36154;51.674;7.824;2022-12-10T13:08:44;2.85;;;1.88;;
48871;SDS011;36154;51.674;7.824;2022-12-10T13:21:59;3.03;;;1.50;;
48871;SDS011;36154;51.674;7.824;2022-12-10T13:30:37;9.82;;;1.98;;
48871;SDS011;36154;51.674;7.824;2022-12-10T13:37:38;13.43;;;2.50;;
48871;SDS011;36154;51.674;7.824;2022-12-10T13:43:23;7.17;;;1.93;;
48871;SDS011;36154;51.674;7.824;2022-12-10T13:46:21;5.97;;;1.90;;
48871;SDS011;36154;51.674;7.824;2022-12-10T13:48:50;4.50;;;1.92;;
48871;SDS011;36154;51.674;7.824;2022-12-10T13:54:00;3.95;;;1.17;;
48871;SDS011;36154;51.674;7.824;2022-12-10T13:56:28;4.90;;;1.98;;
48871;SDS011;36154;51.674;7.824;2022-12-10T14:01:51;4.13;;;1.40;;
48871;SDS011;36154;51.674;7.824;2022-12-10T14:04:29;4.97;;;1.83;;
48871;SDS011;36154;51.674;7.824;2022-12-10T14:07:00;3.15;;;1.50;;
48871;SDS011;36154;51.674;7.824;2022-12-10T14:09:30;3.20;;;1.30;;
48871;SDS011;36154;51.674;7.824;2022-12-10T14:12:01;4.25;;;1.40;;
48871;SDS011;36154;51.674;7.824;2022-12-10T14:14:33;6.28;;;1.88;;
48871;SDS011;36154;51.674;7.824;2022-12-10T14:17:05;5.60;;;1.50;;
48871;SDS011;36154;51.674;7.824;2022-12-10T14:19:37;5.68;;;2.03;;
48871;SDS011;36154;51.674;7.824;2022-12-10T14:22:06;3.45;;;1.58;;
48871;SDS011;36154;51.674;7.824;2022-12-10T14:24:37;2.25;;;1.20;;
48871;SDS011;36154;51.674;7.824;2022-12-10T14:27:17;3.85;;;1.33;;
48871;SDS011;36154;51.674;7.824;2022-12-10T14:29:44;2.00;;;1.35;;
48871;SDS011;36154;51.674;7.824;2022-12-10T14:32:15;3.80;;;1.45;;
48871;SDS011;36154;51.674;7.824;2022-12-10T14:34:46;5.72;;;1.38;;
48871;SDS011;36154;51.674;7.824;2022-12-10T14:39:45;1.65;;;1.00;;
48871;SDS011;36154;51.674;7.824;2022-12-10T14:42:12;1.10;;;0.88;;
48871;SDS011;36154;51.674;7.824;2022-12-10T14:44:40;1.98;;;0.90;;
48871;SDS011;36154;51.674;7.824;2022-12-10T14:47:11;1.77;;;1.08;;
48871;SDS011;36154;51.674;7.824;2022-12-10T14:49:40;0.88;;;0.85;;
48871;SDS011;36154;51.674;7.824;2022-12-10T14:52:15;3.60;;;0.85;;
48871;SDS011;36154;51.674;7.824;2022-12-10T14:54:42;2.13;;;0.98;;
48871;SDS011;36154;51.674;7.824;2022-12-10T14:57:11;0.85;;;0.70;;
48871;SDS011;36154;51.674;7.824;2022-12-10T14:59:50;0.95;;;0.90;;
48871;SDS011;36154;51.674;7.824;2022-12-10T15:02:26;2.90;;;1.10;;
48871;SDS011;36154;51.674;7.824;2022-12-10T15:04:55;1.08;;;0.80;;
48871;SDS011;36154;51.674;7.824;2022-12-10T15:07:22;1.45;;;0.93;;
48871;SDS011;36154;51.674;7.824;2022-12-10T15:09:50;0.80;;;0.80;;
48871;SDS011;36154;51.674;7.824;2022-12-10T15:12:25;0.60;;;0.60;;
48871;SDS011;36154;51.674;7.824;2022-12-10T15:18:13;1.52;;;0.90;;
48871;SDS011;36154;51.674;7.824;2022-12-10T15:29:14;0.90;;;0.80;;
48871;SDS011;36154;51.674;7.824;2022-12-10T15:31:21;2.00;;;0.90;;
48871;SDS011;36154;51.674;7.824;2022-12-10T15:33:58;0.90;;;0.70;;
48871;SDS011;36154;51.674;7.824;2022-12-10T15:36:41;0.70;;;0.70;;
48871;SDS011;36154;51.674;7.824;2022-12-10T15:39:15;0.93;;;0.75;;
48871;SDS011;36154;51.674;7.824;2022-12-10T15:41:46;0.90;;;0.90;;
48871;SDS011;36154;51.674;7.824;2022-12-10T15:47:16;0.93;;;0.93;;
48871;SDS011;36154;51.674;7.824;2022-12-10T15:49:42;0.80;;;0.70;;
48871;SDS011;36154;51.674;7.824;2022-12-10T15:52:15;2.33;;;0.70;;
48871;SDS011;36154;51.674;7.824;2022-12-10T15:54:44;0.60;;;0.60;;
48871;SDS011;36154;51.674;7.824;2022-12-10T15:57:18;0.60;;;0.60;;
48871;SDS011;36154;51.674;7.824;2022-12-10T15:59:46;0.60;;;0.57;;
48871;SDS011;36154;51.674;7.824;2022-12-10T16:04:39;0.67;;;0.63;;
48871;SDS011;36154;51.674;7.824;2022-12-10T16:07:06;1.65;;;0.88;;
48871;SDS011;36154;51.674;7.824;2022-12-10T16:09:32;3.05;;;0.80;;
48871;SDS011;36154;51.674;7.824;2022-12-10T16:11:58;2.00;;;0.73;;
48871;SDS011;36154;51.674;7.824;2022-12-10T16:14:23;1.58;;;0.90;;
48871;SDS011;36154;51.674;7.824;2022-12-10T16:16:48;2.05;;;1.58;;
48871;SDS011;36154;51.674;7.824;2022-12-10T16:19:14;1.10;;;1.10;;
48871;SDS011;36154;51.674;7.824;2022-12-10T16:21:40;1.30;;;0.98;;
48871;SDS011;36154;51.674;7.824;2022-12-10T16:24:06;0.95;;;0.95;;
48871;SDS011;36154;51.674;7.824;2022-12-10T16:26:31;1.70;;;1.40;;
48871;SDS011;36154;51.674;7.824;2022-12-10T16:28:56;0.75;;;0.75;;
48871;SDS011;36154;51.674;7.824;2022-12-10T16:31:22;1.00;;;1.00;;
48871;SDS011;36154;51.674;7.824;2022-12-10T16:33:47;1.10;;;1.10;;
48871;SDS011;36154;51.674;7.824;2022-12-10T16:36:16;3.10;;;1.27;;
48871;SDS011;36154;51.674;7.824;2022-12-10T16:38:42;1.90;;;1.20;;
48871;SDS011;36154;51.674;7.824;2022-12-10T16:44:02;1.30;;;1.20;;
48871;SDS011;36154;51.674;7.824;2022-12-10T16:46:27;1.45;;;1.20;;
48871;SDS011;36154;51.674;7.824;2022-12-10T16:48:52;1.35;;;1.30;;
48871;SDS011;36154;51.674;7.824;2022-12-10T16:51:20;3.35;;;1.20;;
48871;SDS011;36154;51.674;7.824;2022-12-10T16:53:49;2.40;;;1.60;;
48871;SDS011;36154;51.674;7.824;2022-12-10T16:56:15;3.17;;;2.00;;
48871;SDS011;36154;51.674;7.824;2022-12-10T16:58:41;4.60;;;2.70;;
48871;SDS011;36154;51.674;7.824;2022-12-10T17:01:19;3.97;;;3.20;;
48871;SDS011;36154;51.674;7.824;2022-12-10T17:03:55;3.38;;;3.10;;
48871;SDS011;36154;51.674;7.824;2022-12-10T17:06:22;3.72;;;3.40;;
48871;SDS011;36154;51.674;7.824;2022-12-10T17:08:47;3.28;;;3.08;;
48871;SDS011;36154;51.674;7.824;2022-12-10T17:14:00;3.55;;;3.25;;
48871;SDS011;36154;51.674;7.824;2022-12-10T17:16:26;3.58;;;3.35;;
48871;SDS011;36154;51.674;7.824;2022-12-10T17:18:52;3.25;;;3.05;;
48871;SDS011;36154;51.674;7.824;2022-12-10T17:21:17;4.07;;;3.78;;
48871;SDS011;36154;51.674;7.824;2022-12-10T17:23:43;11.68;;;3.38;;